Kliever, Missouri
Current Conditions -  °F | °C
As of 9:53 PM on Wednesday 28 Jan 2015 (Local Time) from KJEF Reporting Station
Clear Clear  
Wind Chill: 53°   Ceiling: Unl
Heat Index: 53°   Visibility: 10mi
Dew Point: 36°   Wind: 12mph
Humidity: 52%   Direction: 170°S
Pressure: 29.8"   Gusts: NA
Location:  38.6124°N, 92.5168°W
Report Text: KJEF 290353Z AUTO 17010KT 10SM CLR 12/02 A2980 RMK AO2 SLP082 T01170022
Loading
Personal Weather Stations






























Interactive Weather Map New forecast layout! Learn more

10-Day Weather Forecast

Advertisements
Track Severe Weather on mobile